• Join FlightAware (Why Join?)
  • Login
  • US Flag 
09:37PM EST


 

Airport Tracker/Info


-or-


 

Live Flight TrackerFlight Track Log ✈ FLG4262 ✈ 16-Sep-2013 ✈ KDTW - KBGM

Flight Track Log - Related Links

Times and Time Zones

All times are in EDT time to prevent confusion due to time zone crossing. See the FLG4262 flight status page for this flight to view local times or setup timezone preferences in your user account.

Time Position Orientation Groundspeed Altitude Reporting Facility
EDT Latitude Longitude Course Direction KTS MPH feet Rate Location/Type
04:22PM 42.2236 -83.3556 35° Northeast 142 163 1,300  Level Cleveland Center
04:24PM 42.2781 -83.3039 35° Northeast 198 228 3,900 1,800 Climbing Cleveland Center
04:24PM 42.2756 -83.3056 206° Southwest 193 222 3,800 1,980 Descending Cleveland Center
04:25PM 42.3264 -83.2597 34° Northeast 221 254 6,000 2,400 Climbing Cleveland Center
04:25PM 42.3411 -83.2478 31° Northeast 261 300 6,500 2,460 Climbing Cleveland Center
04:26PM 42.3825 -83.1889 46° Northeast 266 306 8,600 2,520 Climbing Cleveland Center
04:26PM 42.3892 -83.1669 68° East 293 337 9,100 2,160 Climbing Cleveland Center
04:27PM 42.3875 -83.0747 91° East 298 343 10,900 2,040 Climbing Cleveland Center
04:27PM 42.3872 -83.0536 91° East 316 364 11,200 1,440 Climbing Cleveland Center
04:28PM 42.3839 -82.9514 92° East 323 372 12,400 1,440 Climbing Cleveland Center
04:29PM 42.3786 -82.7856 92° East 359 413 14,200 1,560 Climbing Cleveland Center
04:30PM 42.3733 -82.6406 93° East 379 436 15,700 1,380 Climbing Cleveland Center
04:31PM 42.3692 -82.4947 92° East 387 445 17,100 1,140 Climbing Cleveland Center
04:32PM 42.3625 -82.3450 93° East 397 457 18,100 1,140 Climbing Cleveland Center
04:33PM 42.3561 -82.1944 93° East 402 463 19,500 1,200 Climbing Cleveland Center
04:34PM 42.3494 -82.0336 93° East 405 466 20,700 1,020 Climbing Cleveland Center
04:35PM 42.3422 -81.8756 93° East 414 476 21,700 1,020 Climbing Cleveland Center
04:36PM 42.3350 -81.6892 93° East 421 484 22,900 960 Climbing Cleveland Center
04:37PM 42.3267 -81.5275 94° East 426 490 23,800 720 Climbing Cleveland Center
04:38PM 42.3192 -81.3619 93° East 433 498 24,500 660 Climbing Cleveland Center
04:39PM 42.3108 -81.1950 94° East 441 507 25,200 660 Climbing Cleveland Center
04:40PM 42.3019 -81.0250 94° East 447 514 25,900 660 Climbing Cleveland Center
04:41PM 42.2933 -80.8547 94° East 449 517 26,600 480 Climbing Cleveland Center
04:42PM 42.2839 -80.6836 94° East 451 519 27,000 180 Climbing Cleveland Center
04:43PM 42.2750 -80.5111 94° East 457 526 27,000  Level Cleveland Center
04:44PM 42.2636 -80.3000 94° East 476 548 27,000  Level Cleveland Center
04:45PM 42.2525 -80.1169 95° East 485 558 27,000  Level Cleveland Center
04:46PM 42.2414 -79.9417 95° East 487 560 27,000  Level Cleveland Center
04:47PM 42.2303 -79.7603 95° East 487 560 27,000  Level Cleveland Center
04:48PM 42.2178 -79.5761 95° East 492 566 27,000  Level Cleveland Center
04:49PM 42.2042 -79.3550 95° East 496 571 27,000  Level Cleveland Center
04:50PM 42.1914 -79.1703 95° East 497 572 27,000  Level Cleveland Center
04:52PM 42.1911 -78.9883 90° East 488 562 27,000  Level Cleveland Center
04:53PM 42.1942 -78.8058 89° East 487 560 27,000  Level Cleveland Center
04:54PM 42.1972 -78.6242 89° East 486 559 27,000  Level Cleveland Center
04:55PM 42.2011 -78.4072 89° East 487 560 27,000 -120 Level Cleveland Center
04:56PM 42.2036 -78.2264 89° East 485 558 26,800 -600 Descending Cleveland Center
04:57PM 42.2061 -78.0444 89° East 488 562 25,800 -1,200 Descending Cleveland Center
04:58PM 42.2069 -77.8647 90° East 486 559 24,400 -1,440 Descending Cleveland Center
04:59PM 42.2089 -77.6858 89° East 484 557 22,900 -1,620 Descending Cleveland Center
05:00PM 42.2094 -77.4717 90° East 482 555 21,100 -1,860 Descending Cleveland Center
05:01PM 42.2111 -77.2997 89° East 470 541 19,100 -1,800 Descending Cleveland Center
05:02PM 42.2122 -77.1336 89° East 452 520 17,400 -1,320 Descending Cleveland Center
05:03PM 42.2117 -76.9667 90° East 438 504 16,400 -1,380 Descending New York Center
05:04PM 42.2117 -76.8281 90° East 405 466 14,600 -1,980 Descending Cleveland Center
05:05PM 42.2122 -76.6497 90° East 398 458 12,400 -1,800 Descending Cleveland Center
05:06PM 42.2111 -76.5081 91° East 383 441 11,000 -1,200 Descending Cleveland Center
05:07PM 42.2114 -76.3819 90° East 319 367 10,000 -1,320 Descending Cleveland Center
05:08PM 42.2094 -76.2889 92° East 311 358 8,600 -1,560 Descending New York Center
05:09PM 42.2078 -76.1908 91° East 279 321 7,100 -1,560 Descending New York Center
05:10PM 42.1742 -76.1042 118° Southeast 249 287 5,500 -1,560 Descending New York Center
05:11PM 42.1142 -76.0517 147° Southeast 244 281 4,000 -840 Descending New York Center
05:12PM 42.0619 -76.0056 147° Southeast 238 274 3,900 -60 Descending New York Center
05:13PM 42.0236 -75.9775 151° Southeast 220 253 3,900  Level New York Center
05:14PM 41.9933 -75.9108 121° Southeast 205 236 4,000  Climbing New York Center
05:15PM 42.0208 -75.8517 58° Northeast 150 173 3,900 -120 Descending New York Center
05:16PM 42.0642 -75.8606 351° North 105 121 3,800 -60 Descending New York Center
05:17PM 42.1064 -75.8972 327° Northwest 127 146 3,800 -480 Level New York Center
05:18PM 42.1425 -75.9281 328° Northwest 148 170 2,900 -840 Descending New York Center
05:19PM 42.1725 -75.9528 329° Northwest 148 170 2,200 -720 Descending New York Center